sensor_id;sensor_type;location;lat;lon;timestamp;pressure;altitude;pressure_sealevel;temperature;humidity
80640;BME280;69992;60.170;24.692;2023-08-07T00:00:00;100469.23;;;16.81;29.28
80640;BME280;69992;60.170;24.692;2023-08-07T00:02:26;100464.56;;;16.77;29.26
80640;BME280;69992;60.170;24.692;2023-08-07T00:04:52;100464.80;;;16.85;29.26
80640;BME280;69992;60.170;24.692;2023-08-07T00:07:17;100463.17;;;16.87;29.27
80640;BME280;69992;60.170;24.692;2023-08-07T00:09:43;100464.21;;;16.93;29.22
80640;BME280;69992;60.170;24.692;2023-08-07T00:12:08;100466.30;;;16.93;29.21
80640;BME280;69992;60.170;24.692;2023-08-07T00:14:33;100461.05;;;16.90;29.22
80640;BME280;69992;60.170;24.692;2023-08-07T00:16:59;100460.73;;;16.87;29.22
80640;BME280;69992;60.170;24.692;2023-08-07T00:19:24;100466.04;;;17.76;29.24
80640;BME280;69992;60.170;24.692;2023-08-07T00:21:49;100450.33;;;16.67;29.31
80640;BME280;69992;60.170;24.692;2023-08-07T00:24:15;100455.46;;;17.62;29.27
80640;BME280;69992;60.170;24.692;2023-08-07T00:26:41;100446.92;;;16.67;29.27
80640;BME280;69992;60.170;24.692;2023-08-07T00:29:06;100458.77;;;16.67;29.26
80640;BME280;69992;60.170;24.692;2023-08-07T00:31:31;100450.28;;;16.63;29.30
80640;BME280;69992;60.170;24.692;2023-08-07T00:33:56;100450.60;;;15.47;29.34
80640;BME280;69992;60.170;24.692;2023-08-07T00:36:22;100449.65;;;16.37;29.40
80640;BME280;69992;60.170;24.692;2023-08-07T00:38:47;100447.78;;;16.35;29.37
80640;BME280;69992;60.170;24.692;2023-08-07T00:41:12;100448.17;;;15.42;29.34
80640;BME280;69992;60.170;24.692;2023-08-07T00:43:38;100441.33;;;16.45;29.33
80640;BME280;69992;60.170;24.692;2023-08-07T00:46:03;100433.35;;;16.38;29.35
80640;BME280;69992;60.170;24.692;2023-08-07T00:48:29;100434.52;;;16.34;29.35
80640;BME280;69992;60.170;24.692;2023-08-07T00:50:54;100424.64;;;16.26;29.35
80640;BME280;69992;60.170;24.692;2023-08-07T00:53:20;100426.70;;;16.30;29.32
80640;BME280;69992;60.170;24.692;2023-08-07T00:55:46;100418.57;;;16.33;29.31
80640;BME280;69992;60.170;24.692;2023-08-07T00:58:11;100418.69;;;16.39;29.31
80640;BME280;69992;60.170;24.692;2023-08-07T01:00:36;100420.58;;;16.42;29.30
80640;BME280;69992;60.170;24.692;2023-08-07T01:03:05;100410.16;;;16.44;29.28
80640;BME280;69992;60.170;24.692;2023-08-07T01:05:26;100415.40;;;16.51;29.25
80640;BME280;69992;60.170;24.692;2023-08-07T01:07:53;100415.45;;;16.51;29.25
80640;BME280;69992;60.170;24.692;2023-08-07T01:10:17;100409.65;;;17.52;29.23
80640;BME280;69992;60.170;24.692;2023-08-07T01:12:48;100410.43;;;15.58;29.23
80640;BME280;69992;60.170;24.692;2023-08-07T01:15:14;100408.80;;;17.60;29.20
80640;BME280;69992;60.170;24.692;2023-08-07T01:17:34;100407.86;;;15.71;29.17
80640;BME280;69992;60.170;24.692;2023-08-07T01:19:58;100410.42;;;16.68;29.17
80640;BME280;69992;60.170;24.692;2023-08-07T01:22:24;100408.37;;;17.61;29.19
80640;BME280;69992;60.170;24.692;2023-08-07T01:24:50;100405.69;;;17.55;29.23
80640;BME280;69992;60.170;24.692;2023-08-07T01:27:26;100402.74;;;16.53;29.26
80640;BME280;69992;60.170;24.692;2023-08-07T01:29:44;100399.63;;;17.54;29.23
80640;BME280;69992;60.170;24.692;2023-08-07T01:32:09;100397.18;;;16.58;29.21
80640;BME280;69992;60.170;24.692;2023-08-07T01:34:32;100394.25;;;16.66;29.18
80640;BME280;69992;60.170;24.692;2023-08-07T01:36:57;100392.47;;;16.70;29.16
80640;BME280;69992;60.170;24.692;2023-08-07T01:39:22;100390.93;;;16.61;29.21
80640;BME280;69992;60.170;24.692;2023-08-07T01:41:48;100375.86;;;17.46;29.26
80640;BME280;69992;60.170;24.692;2023-08-07T01:44:13;100385.30;;;17.31;29.29
80640;BME280;69992;60.170;24.692;2023-08-07T01:46:38;100383.39;;;17.33;29.28
80640;BME280;69992;60.170;24.692;2023-08-07T01:49:04;100378.09;;;16.38;29.26
80640;BME280;69992;60.170;24.692;2023-08-07T01:51:29;100375.31;;;16.45;29.26
80640;BME280;69992;60.170;24.692;2023-08-07T01:53:55;100368.00;;;16.41;29.26
80640;BME280;69992;60.170;24.692;2023-08-07T01:56:20;100367.78;;;16.35;29.25
80640;BME280;69992;60.170;24.692;2023-08-07T01:58:46;100357.80;;;17.25;29.29
80640;BME280;69992;60.170;24.692;2023-08-07T02:01:11;100353.18;;;16.26;29.31
80640;BME280;69992;60.170;24.692;2023-08-07T02:03:37;100355.46;;;17.27;29.29
80640;BME280;69992;60.170;24.692;2023-08-07T02:06:02;100345.14;;;16.36;29.26
80640;BME280;69992;60.170;24.692;2023-08-07T02:08:28;100355.64;;;16.27;29.30
80640;BME280;69992;60.170;24.692;2023-08-07T02:10:53;100352.09;;;16.26;29.30
80640;BME280;69992;60.170;24.692;2023-08-07T02:13:18;100351.28;;;17.24;29.31
80640;BME280;69992;60.170;24.692;2023-08-07T02:15:43;100341.22;;;16.33;29.27
80640;BME280;69992;60.170;24.692;2023-08-07T02:18:09;100336.13;;;17.31;29.27
80640;BME280;69992;60.170;24.692;2023-08-07T02:20:34;100337.38;;;16.29;29.28
80640;BME280;69992;60.170;24.692;2023-08-07T02:23:00;100338.56;;;16.24;29.31
80640;BME280;69992;60.170;24.692;2023-08-07T02:25:25;100327.99;;;17.22;29.34
80640;BME280;69992;60.170;24.692;2023-08-07T02:27:51;100329.32;;;17.24;29.32
80640;BME280;69992;60.170;24.692;2023-08-07T02:30:16;100320.03;;;17.30;29.32
80640;BME280;69992;60.170;24.692;2023-08-07T02:32:40;100318.39;;;17.38;29.29
80640;BME280;69992;60.170;24.692;2023-08-07T02:35:07;100317.99;;;17.45;29.28
80640;BME280;69992;60.170;24.692;2023-08-07T02:37:32;100316.27;;;16.55;29.26
80640;BME280;69992;60.170;24.692;2023-08-07T02:39:57;100312.37;;;17.52;29.27
80640;BME280;69992;60.170;24.692;2023-08-07T02:42:23;100306.45;;;17.56;29.28
80640;BME280;69992;60.170;24.692;2023-08-07T02:44:48;100306.27;;;16.63;29.29
80640;BME280;69992;60.170;24.692;2023-08-07T02:47:14;100310.81;;;16.64;29.31
80640;BME280;69992;60.170;24.692;2023-08-07T02:49:39;100301.40;;;16.66;29.45
80640;BME280;69992;60.170;24.692;2023-08-07T02:52:05;100308.27;;;17.67;29.35
80640;BME280;69992;60.170;24.692;2023-08-07T02:54:30;100312.78;;;16.79;29.32
80640;BME280;69992;60.170;24.692;2023-08-07T02:56:56;100307.56;;;17.81;29.34
80640;BME280;69992;60.170;24.692;2023-08-07T02:59:21;100304.12;;;16.96;29.30
80640;BME280;69992;60.170;24.692;2023-08-07T03:01:46;100301.75;;;17.05;29.27
80640;BME280;69992;60.170;24.692;2023-08-07T03:04:12;100297.06;;;16.15;29.27
80640;BME280;69992;60.170;24.692;2023-08-07T03:06:37;100296.80;;;17.13;29.27
80640;BME280;69992;60.170;24.692;2023-08-07T03:09:02;100293.73;;;17.10;29.31
80640;BME280;69992;60.170;24.692;2023-08-07T03:11:28;100296.85;;;17.14;29.31
80640;BME280;69992;60.170;24.692;2023-08-07T03:13:53;100298.83;;;17.22;29.30
80640;BME280;69992;60.170;24.692;2023-08-07T03:16:18;100296.09;;;17.29;29.31
80640;BME280;69992;60.170;24.692;2023-08-07T03:18:44;100295.32;;;17.44;29.28
80640;BME280;69992;60.170;24.692;2023-08-07T03:21:10;100294.43;;;17.50;29.29
80640;BME280;69992;60.170;24.692;2023-08-07T03:23:35;100288.01;;;17.53;29.34
80640;BME280;69992;60.170;24.692;2023-08-07T03:26:03;100291.35;;;18.54;29.33
80640;BME280;69992;60.170;24.692;2023-08-07T03:28:26;100289.53;;;17.60;29.36
80640;BME280;69992;60.170;24.692;2023-08-07T03:30:51;100287.31;;;17.69;29.35
80640;BME280;69992;60.170;24.692;2023-08-07T03:33:16;100287.41;;;17.73;29.36
80640;BME280;69992;60.170;24.692;2023-08-07T03:35:42;100289.79;;;16.82;29.37
80640;BME280;69992;60.170;24.692;2023-08-07T03:38:07;100290.33;;;17.85;29.42
80640;BME280;69992;60.170;24.692;2023-08-07T03:40:33;100284.46;;;17.90;29.40
80640;BME280;69992;60.170;24.692;2023-08-07T03:42:59;100278.85;;;17.99;29.41
80640;BME280;69992;60.170;24.692;2023-08-07T03:45:25;100282.30;;;18.08;29.39
80640;BME280;69992;60.170;24.692;2023-08-07T03:47:50;100284.94;;;18.15;29.41
80640;BME280;69992;60.170;24.692;2023-08-07T03:50:16;100278.82;;;18.30;29.38
80640;BME280;69992;60.170;24.692;2023-08-07T03:52:41;100280.60;;;17.40;29.36
80640;BME280;69992;60.170;24.692;2023-08-07T03:55:07;100282.02;;;17.50;29.36
80640;BME280;69992;60.170;24.692;2023-08-07T03:57:32;100282.56;;;17.58;29.35
80640;BME280;69992;60.170;24.692;2023-08-07T03:59:57;100283.69;;;18.62;29.36
80640;BME280;69992;60.170;24.692;2023-08-07T04:02:23;100286.48;;;17.73;29.34
80640;BME280;69992;60.170;24.692;2023-08-07T04:04:49;100283.08;;;17.76;29.36
80640;BME280;69992;60.170;24.692;2023-08-07T04:07:14;100285.89;;;17.85;29.34
80640;BME280;69992;60.170;24.692;2023-08-07T04:09:39;100282.01;;;18.81;29.39
80640;BME280;69992;60.170;24.692;2023-08-07T04:12:04;100281.80;;;17.80;29.44
80640;BME280;69992;60.170;24.692;2023-08-07T04:14:29;100272.53;;;17.90;29.43
80640;BME280;69992;60.170;24.692;2023-08-07T04:16:55;100278.25;;;18.98;29.42
80640;BME280;69992;60.170;24.692;2023-08-07T04:19:20;100278.22;;;17.15;29.40
80640;BME280;69992;60.170;24.692;2023-08-07T04:21:46;100275.97;;;19.23;29.37
80640;BME280;69992;60.170;24.692;2023-08-07T04:24:11;100273.92;;;17.43;29.35
80640;BME280;69992;60.170;24.692;2023-08-07T04:26:37;100275.18;;;17.56;29.36
80640;BME280;69992;60.170;24.692;2023-08-07T04:29:03;100274.56;;;17.57;29.39
80640;BME280;69992;60.170;24.692;2023-08-07T04:31:28;100278.78;;;16.69;29.37
80640;BME280;69992;60.170;24.692;2023-08-07T04:33:53;100272.92;;;17.75;29.37
80640;BME280;69992;60.170;24.692;2023-08-07T04:36:19;100271.75;;;17.85;29.37
80640;BME280;69992;60.170;24.692;2023-08-07T04:38:44;100276.45;;;17.92;29.40
80640;BME280;69992;60.170;24.692;2023-08-07T04:41:09;100276.42;;;18.06;29.37
80640;BME280;69992;60.170;24.692;2023-08-07T04:43:35;100270.78;;;18.13;29.36
80640;BME280;69992;60.170;24.692;2023-08-07T04:46:00;100271.46;;;18.18;29.40
80640;BME280;69992;60.170;24.692;2023-08-07T04:48:26;100262.29;;;19.23;29.39
80640;BME280;69992;60.170;24.692;2023-08-07T04:50:51;100269.83;;;18.37;29.46
80640;BME280;69992;60.170;24.692;2023-08-07T04:53:16;100272.64;;;18.38;29.44
80640;BME280;69992;60.170;24.692;2023-08-07T04:55:42;100269.95;;;18.39;29.48
80640;BME280;69992;60.170;24.692;2023-08-07T04:58:07;100272.20;;;18.48;29.50
80640;BME280;69992;60.170;24.692;2023-08-07T05:00:32;100265.59;;;18.56;29.48
80640;BME280;69992;60.170;24.692;2023-08-07T05:02:58;100258.49;;;18.59;29.54
80640;BME280;69992;60.170;24.692;2023-08-07T05:05:24;100259.16;;;18.63;29.58
80640;BME280;69992;60.170;24.692;2023-08-07T05:07:49;100257.46;;;18.69;29.56
80640;BME280;69992;60.170;24.692;2023-08-07T05:10:15;100258.03;;;17.82;29.55
80640;BME280;69992;60.170;24.692;2023-08-07T05:12:40;100253.03;;;18.87;29.66
80640;BME280;69992;60.170;24.692;2023-08-07T05:15:06;100253.80;;;18.91;29.57
80640;BME280;69992;60.170;24.692;2023-08-07T05:17:31;100247.03;;;19.09;29.51
80640;BME280;69992;60.170;24.692;2023-08-07T05:19:56;100243.64;;;19.16;29.52
80640;BME280;69992;60.170;24.692;2023-08-07T05:22:22;100245.55;;;18.21;29.55
80640;BME280;69992;60.170;24.692;2023-08-07T05:24:47;100244.62;;;19.25;29.58
80640;BME280;69992;60.170;24.692;2023-08-07T05:27:13;100238.82;;;18.38;29.55
80640;BME280;69992;60.170;24.692;2023-08-07T05:29:38;100240.44;;;17.47;29.55
80640;BME280;69992;60.170;24.692;2023-08-07T05:32:05;100241.62;;;19.51;29.56
80640;BME280;69992;60.170;24.692;2023-08-07T05:34:29;100244.56;;;17.71;29.54
80640;BME280;69992;60.170;24.692;2023-08-07T05:36:54;100245.90;;;18.80;29.58
80640;BME280;69992;60.170;24.692;2023-08-07T05:39:20;100246.18;;;19.81;29.57
80640;BME280;69992;60.170;24.692;2023-08-07T05:41:45;100251.16;;;18.99;29.54
80640;BME280;69992;60.170;24.692;2023-08-07T05:44:10;100244.22;;;19.12;29.55
80640;BME280;69992;60.170;24.692;2023-08-07T05:46:35;100243.74;;;19.22;29.57
80640;BME280;69992;60.170;24.692;2023-08-07T05:49:01;100244.14;;;18.36;29.55
80640;BME280;69992;60.170;24.692;2023-08-07T05:51:26;100244.83;;;18.48;29.51
80640;BME280;69992;60.170;24.692;2023-08-07T05:53:52;100244.19;;;18.54;29.53
80640;BME280;69992;60.170;24.692;2023-08-07T05:56:17;100242.09;;;19.64;29.54
80640;BME280;69992;60.170;24.692;2023-08-07T05:58:43;100240.61;;;19.54;29.59
80640;BME280;69992;60.170;24.692;2023-08-07T06:01:08;100235.56;;;18.64;29.56
80640;BME280;69992;60.170;24.692;2023-08-07T06:03:34;100243.27;;;19.68;29.62
80640;BME280;69992;60.170;24.692;2023-08-07T06:05:59;100238.45;;;18.74;29.66
80640;BME280;69992;60.170;24.692;2023-08-07T06:08:25;100239.39;;;18.84;29.60
80640;BME280;69992;60.170;24.692;2023-08-07T06:10:50;100242.38;;;19.85;29.61
80640;BME280;69992;60.170;24.692;2023-08-07T06:13:15;100237.21;;;19.93;29.60
80640;BME280;69992;60.170;24.692;2023-08-07T06:15:40;100239.01;;;20.02;29.61
80640;BME280;69992;60.170;24.692;2023-08-07T06:18:06;100234.93;;;19.08;29.64
80640;BME280;69992;60.170;24.692;2023-08-07T06:20:33;100232.96;;;19.14;29.63
80640;BME280;69992;60.170;24.692;2023-08-07T06:22:57;100222.30;;;19.25;29.63
80640;BME280;69992;60.170;24.692;2023-08-07T06:25:24;100224.83;;;20.33;29.59
80640;BME280;69992;60.170;24.692;2023-08-07T06:27:50;100222.66;;;19.43;29.60
80640;BME280;69992;60.170;24.692;2023-08-07T06:30:14;100221.35;;;19.48;29.64
80640;BME280;69992;60.170;24.692;2023-08-07T06:32:39;100220.55;;;19.57;29.65
80640;BME280;69992;60.170;24.692;2023-08-07T06:35:05;100218.34;;;19.69;29.65
80640;BME280;69992;60.170;24.692;2023-08-07T06:37:30;100207.91;;;19.75;29.65
80640;BME280;69992;60.170;24.692;2023-08-07T06:39:55;100199.93;;;19.90;29.65
80640;BME280;69992;60.170;24.692;2023-08-07T06:42:20;100198.90;;;20.03;29.63
80640;BME280;69992;60.170;24.692;2023-08-07T06:44:47;100196.07;;;20.19;29.58
80640;BME280;69992;60.170;24.692;2023-08-07T06:47:11;100194.52;;;20.32;29.58
80640;BME280;69992;60.170;24.692;2023-08-07T06:49:37;100196.18;;;20.44;29.59
80640;BME280;69992;60.170;24.692;2023-08-07T06:52:02;100196.03;;;20.40;29.66
80640;BME280;69992;60.170;24.692;2023-08-07T06:54:28;100186.93;;;18.50;29.65
80640;BME280;69992;60.170;24.692;2023-08-07T06:56:53;100188.20;;;19.63;29.66
80640;BME280;69992;60.170;24.692;2023-08-07T06:59:19;100188.44;;;20.87;29.61
80640;BME280;69992;60.170;24.692;2023-08-07T07:01:44;100186.56;;;21.03;29.59
80640;BME280;69992;60.170;24.692;2023-08-07T07:04:10;100187.82;;;21.23;29.57
80640;BME280;69992;60.170;24.692;2023-08-07T07:06:37;100186.64;;;21.42;29.59
80640;BME280;69992;60.170;24.692;2023-08-07T07:09:01;100182.43;;;21.60;29.56
80640;BME280;69992;60.170;24.692;2023-08-07T07:11:27;100181.48;;;19.77;29.56
80640;BME280;69992;60.170;24.692;2023-08-07T07:13:52;100190.40;;;19.90;29.57
80640;BME280;69992;60.170;24.692;2023-08-07T07:16:18;100189.80;;;20.02;29.57
80640;BME280;69992;60.170;24.692;2023-08-07T07:18:44;100190.32;;;20.21;29.55
80640;BME280;69992;60.170;24.692;2023-08-07T07:21:09;100183.55;;;21.29;29.56
80640;BME280;69992;60.170;24.692;2023-08-07T07:23:34;100186.86;;;20.38;29.57
80640;BME280;69992;60.170;24.692;2023-08-07T07:26:00;100184.54;;;20.51;29.57
80640;BME280;69992;60.170;24.692;2023-08-07T07:28:25;100188.65;;;20.60;29.59
80640;BME280;69992;60.170;24.692;2023-08-07T07:30:51;100191.27;;;20.58;29.64
80640;BME280;69992;60.170;24.692;2023-08-07T07:33:17;100176.23;;;20.65;29.67
80640;BME280;69992;60.170;24.692;2023-08-07T07:35:42;100172.96;;;20.61;29.71
80640;BME280;69992;60.170;24.692;2023-08-07T07:38:07;100176.94;;;20.65;29.74
80640;BME280;69992;60.170;24.692;2023-08-07T07:40:34;100178.12;;;20.80;29.72
80640;BME280;69992;60.170;24.692;2023-08-07T07:42:58;100178.46;;;20.96;29.71
80640;BME280;69992;60.170;24.692;2023-08-07T07:45:24;100169.69;;;23.01;29.72
80640;BME280;69992;60.170;24.692;2023-08-07T07:47:49;100170.50;;;21.29;29.69
80640;BME280;69992;60.170;24.692;2023-08-07T07:50:15;100173.03;;;21.50;29.68
80640;BME280;69992;60.170;24.692;2023-08-07T07:52:40;100164.41;;;21.71;29.68
80640;BME280;69992;60.170;24.692;2023-08-07T07:55:06;100166.39;;;20.92;29.67
80640;BME280;69992;60.170;24.692;2023-08-07T07:57:30;100168.41;;;21.13;29.66
80640;BME280;69992;60.170;24.692;2023-08-07T07:59:56;100165.87;;;21.28;29.64
80640;BME280;69992;60.170;24.692;2023-08-07T08:02:22;100160.69;;;21.43;29.64
80640;BME280;69992;60.170;24.692;2023-08-07T08:04:47;100160.92;;;21.49;29.68
80640;BME280;69992;60.170;24.692;2023-08-07T08:07:12;100165.55;;;21.61;29.68
80640;BME280;69992;60.170;24.692;2023-08-07T08:09:37;100163.12;;;21.79;29.68
80640;BME280;69992;60.170;24.692;2023-08-07T08:12:03;100155.48;;;21.02;29.68
80640;BME280;69992;60.170;24.692;2023-08-07T08:14:28;100153.35;;;21.14;29.71
80640;BME280;69992;60.170;24.692;2023-08-07T08:16:53;100152.94;;;22.32;29.69
80640;BME280;69992;60.170;24.692;2023-08-07T08:19:19;100152.12;;;21.47;29.69
80640;BME280;69992;60.170;24.692;2023-08-07T08:21:44;100153.11;;;19.69;29.70
80640;BME280;69992;60.170;24.692;2023-08-07T08:24:09;100149.42;;;21.93;29.64
80640;BME280;69992;60.170;24.692;2023-08-07T08:26:35;100140.46;;;21.11;29.64
80640;BME280;69992;60.170;24.692;2023-08-07T08:29:00;100149.67;;;22.22;29.65
80640;BME280;69992;60.170;24.692;2023-08-07T08:31:26;100149.02;;;21.42;29.67
80640;BME280;69992;60.170;24.692;2023-08-07T08:33:51;100151.07;;;22.56;29.68
80640;BME280;69992;60.170;24.692;2023-08-07T08:36:16;100145.89;;;21.83;29.67
80640;BME280;69992;60.170;24.692;2023-08-07T08:38:41;100152.72;;;22.11;29.67
80640;BME280;69992;60.170;24.692;2023-08-07T08:41:08;100146.34;;;22.49;29.63
80640;BME280;69992;60.170;24.692;2023-08-07T08:43:35;100150.82;;;22.75;29.61
80640;BME280;69992;60.170;24.692;2023-08-07T08:45:57;100155.14;;;23.91;29.61
80640;BME280;69992;60.170;24.692;2023-08-07T08:48:23;100159.83;;;22.04;29.64
80640;BME280;69992;60.170;24.692;2023-08-07T08:50:49;100162.77;;;22.31;29.66
80640;BME280;69992;60.170;24.692;2023-08-07T08:53:14;100161.49;;;23.55;29.66
80640;BME280;69992;60.170;24.692;2023-08-07T08:55:39;100166.85;;;22.81;29.65
80640;BME280;69992;60.170;24.692;2023-08-07T08:58:04;100161.52;;;22.95;29.65
80640;BME280;69992;60.170;24.692;2023-08-07T09:00:29;100167.58;;;23.37;29.64
80640;BME280;69992;60.170;24.692;2023-08-07T09:02:54;100164.88;;;23.79;29.62
80640;BME280;69992;60.170;24.692;2023-08-07T09:05:20;100168.30;;;24.34;29.57
80640;BME280;69992;60.170;24.692;2023-08-07T09:07:45;100169.78;;;24.69;29.53
80640;BME280;69992;60.170;24.692;2023-08-07T09:10:10;100177.45;;;24.90;29.53
80640;BME280;69992;60.170;24.692;2023-08-07T09:12:39;100169.71;;;24.06;29.54
80640;BME280;69992;60.170;24.692;2023-08-07T09:15:02;100175.30;;;24.24;29.54
80640;BME280;69992;60.170;24.692;2023-08-07T09:17:28;100171.41;;;24.40;29.55
80640;BME280;69992;60.170;24.692;2023-08-07T09:19:52;100176.71;;;24.52;29.58
80640;BME280;69992;60.170;24.692;2023-08-07T09:22:17;100162.82;;;23.69;29.61
80640;BME280;69992;60.170;24.692;2023-08-07T09:24:42;100162.22;;;24.95;29.62
80640;BME280;69992;60.170;24.692;2023-08-07T09:27:07;100166.12;;;24.38;29.58
80640;BME280;69992;60.170;24.692;2023-08-07T09:29:33;100158.90;;;24.82;29.52
80640;BME280;69992;60.170;24.692;2023-08-07T09:32:06;100167.66;;;25.38;29.47
80640;BME280;69992;60.170;24.692;2023-08-07T09:34:23;100159.32;;;25.97;29.39
80640;BME280;69992;60.170;24.692;2023-08-07T09:36:48;100153.97;;;25.47;29.01
80640;BME280;69992;60.170;24.692;2023-08-07T09:39:14;100151.96;;;27.47;28.65
80640;BME280;69992;60.170;24.692;2023-08-07T09:41:39;100150.56;;;27.17;28.32
80640;BME280;69992;60.170;24.692;2023-08-07T09:44:06;100152.45;;;28.53;28.11
80640;BME280;69992;60.170;24.692;2023-08-07T09:46:29;100155.62;;;27.80;27.94
80640;BME280;69992;60.170;24.692;2023-08-07T09:48:58;100153.76;;;29.20;27.77
80640;BME280;69992;60.170;24.692;2023-08-07T09:51:20;100151.56;;;30.56;27.57
80640;BME280;69992;60.170;24.692;2023-08-07T09:53:47;100144.94;;;30.67;27.46
80640;BME280;69992;60.170;24.692;2023-08-07T09:56:12;100146.18;;;30.75;27.33
80640;BME280;69992;60.170;24.692;2023-08-07T09:58:35;100145.66;;;31.26;27.28
80640;BME280;69992;60.170;24.692;2023-08-07T10:01:03;100144.60;;;31.06;27.24
80640;BME280;69992;60.170;24.692;2023-08-07T10:03:27;100132.38;;;30.87;27.08
80640;BME280;69992;60.170;24.692;2023-08-07T10:05:52;100135.95;;;31.40;27.13
80640;BME280;69992;60.170;24.692;2023-08-07T10:08:18;100134.12;;;31.73;27.05
80640;BME280;69992;60.170;24.692;2023-08-07T10:10:43;100135.69;;;32.09;27.15
80640;BME280;69992;60.170;24.692;2023-08-07T10:13:08;100131.77;;;31.83;27.03
80640;BME280;69992;60.170;24.692;2023-08-07T10:15:33;100130.27;;;32.35;27.06
80640;BME280;69992;60.170;24.692;2023-08-07T10:17:59;100128.89;;;34.24;26.98
80640;BME280;69992;60.170;24.692;2023-08-07T10:20:27;100124.06;;;32.87;26.90
80640;BME280;69992;60.170;24.692;2023-08-07T10:22:52;100128.19;;;33.71;26.84
80640;BME280;69992;60.170;24.692;2023-08-07T10:25:17;100122.02;;;34.44;26.73
80640;BME280;69992;60.170;24.692;2023-08-07T10:27:43;100136.65;;;33.80;26.68
80640;BME280;69992;60.170;24.692;2023-08-07T10:30:09;100123.86;;;34.89;26.71
80640;BME280;69992;60.170;24.692;2023-08-07T10:32:32;100119.80;;;34.00;26.70
80640;BME280;69992;60.170;24.692;2023-08-07T10:34:57;100120.10;;;34.05;26.78
80640;BME280;69992;60.170;24.692;2023-08-07T10:37:32;100119.39;;;34.33;26.80
80640;BME280;69992;60.170;24.692;2023-08-07T10:42:13;100107.63;;;34.90;26.78
80640;BME280;69992;60.170;24.692;2023-08-07T10:44:48;100105.09;;;33.67;26.89
80640;BME280;69992;60.170;24.692;2023-08-07T10:47:04;100112.87;;;33.47;27.01
80640;BME280;69992;60.170;24.692;2023-08-07T10:49:31;100109.35;;;32.99;27.08
80640;BME280;69992;60.170;24.692;2023-08-07T10:51:55;100101.84;;;31.83;27.35
80640;BME280;69992;60.170;24.692;2023-08-07T10:54:20;100096.05;;;32.29;27.69
80640;BME280;69992;60.170;24.692;2023-08-07T10:56:52;100094.38;;;31.45;27.95
80640;BME280;69992;60.170;24.692;2023-08-07T10:59:12;100089.61;;;29.78;28.39
80640;BME280;69992;60.170;24.692;2023-08-07T11:01:41;100083.91;;;29.89;28.59
80640;BME280;69992;60.170;24.692;2023-08-07T11:04:06;100083.15;;;28.18;28.96
80640;BME280;69992;60.170;24.692;2023-08-07T11:06:28;100081.85;;;27.87;29.29
80640;BME280;69992;60.170;24.692;2023-08-07T11:08:51;100080.35;;;27.74;29.36
80640;BME280;69992;60.170;24.692;2023-08-07T11:11:17;100085.73;;;26.56;29.53
80640;BME280;69992;60.170;24.692;2023-08-07T11:13:42;100074.24;;;26.67;29.73
80640;BME280;69992;60.170;24.692;2023-08-07T11:16:08;100072.08;;;26.08;29.80
80640;BME280;69992;60.170;24.692;2023-08-07T11:18:34;100073.90;;;26.53;29.79
80640;BME280;69992;60.170;24.692;2023-08-07T11:20:59;100076.79;;;26.90;29.89
80640;BME280;69992;60.170;24.692;2023-08-07T11:23:26;100062.72;;;26.46;29.94
80640;BME280;69992;60.170;24.692;2023-08-07T11:25:50;100065.70;;;26.24;29.97
80640;BME280;69992;60.170;24.692;2023-08-07T11:28:18;100064.53;;;26.05;29.85
80640;BME280;69992;60.170;24.692;2023-08-07T11:30:41;100062.00;;;25.92;29.90
80640;BME280;69992;60.170;24.692;2023-08-07T11:33:06;100058.47;;;25.67;29.75
80640;BME280;69992;60.170;24.692;2023-08-07T11:35:31;100056.65;;;25.18;29.73
80640;BME280;69992;60.170;24.692;2023-08-07T11:37:57;100052.49;;;25.95;29.85
80640;BME280;69992;60.170;24.692;2023-08-07T11:40:23;100051.03;;;25.82;29.87
80640;BME280;69992;60.170;24.692;2023-08-07T11:42:48;100050.90;;;25.52;29.85
80640;BME280;69992;60.170;24.692;2023-08-07T11:45:13;100048.10;;;26.47;29.85
80640;BME280;69992;60.170;24.692;2023-08-07T11:47:39;100049.16;;;25.48;29.86
80640;BME280;69992;60.170;24.692;2023-08-07T11:50:05;100036.81;;;26.33;29.75
80640;BME280;69992;60.170;24.692;2023-08-07T11:52:29;100034.48;;;24.20;29.82
80640;BME280;69992;60.170;24.692;2023-08-07T11:54:54;100037.89;;;25.24;29.81
80640;BME280;69992;60.170;24.692;2023-08-07T11:57:20;100041.89;;;25.30;29.72
80640;BME280;69992;60.170;24.692;2023-08-07T11:59:50;100030.64;;;25.30;29.64
80640;BME280;69992;60.170;24.692;2023-08-07T12:02:11;100033.19;;;25.49;29.56
80640;BME280;69992;60.170;24.692;2023-08-07T12:04:36;100036.39;;;24.79;29.44
80640;BME280;69992;60.170;24.692;2023-08-07T12:07:01;100042.12;;;26.34;29.45
80640;BME280;69992;60.170;24.692;2023-08-07T12:09:28;100035.27;;;25.83;29.39
80640;BME280;69992;60.170;24.692;2023-08-07T12:11:56;100029.54;;;26.30;29.26
80640;BME280;69992;60.170;24.692;2023-08-07T12:14:17;100025.07;;;26.80;29.08
80640;BME280;69992;60.170;24.692;2023-08-07T12:16:44;100020.22;;;26.82;29.06
80640;BME280;69992;60.170;24.692;2023-08-07T12:19:08;100019.19;;;25.71;29.06
80640;BME280;69992;60.170;24.692;2023-08-07T12:21:33;100016.44;;;25.49;28.96
80640;BME280;69992;60.170;24.692;2023-08-07T12:23:59;100014.00;;;26.43;29.06
80640;BME280;69992;60.170;24.692;2023-08-07T12:26:24;100016.00;;;26.60;29.12
80640;BME280;69992;60.170;24.692;2023-08-07T12:28:49;100016.95;;;26.67;29.09
80640;BME280;69992;60.170;24.692;2023-08-07T12:31:14;100016.12;;;26.81;29.08